sensor_id;sensor_type;location;lat;lon;timestamp;P1;durP1;ratioP1;P2;durP2;ratioP2
51764;SDS011;37835;53.256;6.456;2023-05-10T00:01:20;12.27;;;11.07;;
51764;SDS011;37835;53.256;6.456;2023-05-10T00:03:46;12.23;;;10.93;;
51764;SDS011;37835;53.256;6.456;2023-05-10T00:06:12;12.07;;;10.77;;
51764;SDS011;37835;53.256;6.456;2023-05-10T00:08:37;11.68;;;10.48;;
51764;SDS011;37835;53.256;6.456;2023-05-10T00:11:03;11.65;;;10.45;;
51764;SDS011;37835;53.256;6.456;2023-05-10T00:13:28;12.68;;;11.38;;
51764;SDS011;37835;53.256;6.456;2023-05-10T00:15:54;11.48;;;10.35;;
51764;SDS011;37835;53.256;6.456;2023-05-10T00:18:20;12.98;;;11.25;;
51764;SDS011;37835;53.256;6.456;2023-05-10T00:20:45;13.23;;;11.82;;
51764;SDS011;37835;53.256;6.456;2023-05-10T00:23:11;12.50;;;10.88;;
51764;SDS011;37835;53.256;6.456;2023-05-10T00:25:37;14.20;;;12.10;;
51764;SDS011;37835;53.256;6.456;2023-05-10T00:28:02;13.45;;;11.20;;
51764;SDS011;37835;53.256;6.456;2023-05-10T00:30:28;12.23;;;10.68;;
51764;SDS011;37835;53.256;6.456;2023-05-10T00:32:54;13.48;;;11.23;;
51764;SDS011;37835;53.256;6.456;2023-05-10T00:35:19;11.98;;;9.70;;
51764;SDS011;37835;53.256;6.456;2023-05-10T00:37:46;11.93;;;10.63;;
51764;SDS011;37835;53.256;6.456;2023-05-10T00:40:12;13.35;;;9.95;;
51764;SDS011;37835;53.256;6.456;2023-05-10T00:42:37;10.32;;;9.07;;
51764;SDS011;37835;53.256;6.456;2023-05-10T00:45:03;9.30;;;8.50;;
51764;SDS011;37835;53.256;6.456;2023-05-10T00:47:29;9.25;;;8.38;;
51764;SDS011;37835;53.256;6.456;2023-05-10T00:49:55;9.43;;;8.52;;
51764;SDS011;37835;53.256;6.456;2023-05-10T00:52:21;10.32;;;9.25;;
51764;SDS011;37835;53.256;6.456;2023-05-10T00:54:48;8.48;;;7.78;;
51764;SDS011;37835;53.256;6.456;2023-05-10T00:57:16;8.43;;;7.50;;
51764;SDS011;37835;53.256;6.456;2023-05-10T00:59:42;8.05;;;7.35;;
51764;SDS011;37835;53.256;6.456;2023-05-10T01:02:08;9.10;;;8.20;;
51764;SDS011;37835;53.256;6.456;2023-05-10T01:04:33;8.27;;;7.57;;
51764;SDS011;37835;53.256;6.456;2023-05-10T01:07:00;10.18;;;9.10;;
51764;SDS011;37835;53.256;6.456;2023-05-10T01:09:26;9.73;;;8.73;;
51764;SDS011;37835;53.256;6.456;2023-05-10T01:11:52;10.55;;;9.45;;
51764;SDS011;37835;53.256;6.456;2023-05-10T01:14:19;11.00;;;9.90;;
51764;SDS011;37835;53.256;6.456;2023-05-10T01:16:45;12.25;;;10.48;;
51764;SDS011;37835;53.256;6.456;2023-05-10T01:19:12;15.02;;;10.82;;
51764;SDS011;37835;53.256;6.456;2023-05-10T01:24:27;13.10;;;10.98;;
51764;SDS011;37835;53.256;6.456;2023-05-10T01:27:25;11.13;;;9.82;;
51764;SDS011;37835;53.256;6.456;2023-05-10T01:36:00;11.95;;;10.75;;
51764;SDS011;37835;53.256;6.456;2023-05-10T01:38:51;12.07;;;10.25;;
51764;SDS011;37835;53.256;6.456;2023-05-10T01:42:07;11.90;;;10.30;;
51764;SDS011;37835;53.256;6.456;2023-05-10T01:44:34;10.27;;;9.27;;
51764;SDS011;37835;53.256;6.456;2023-05-10T01:47:02;10.52;;;9.60;;
51764;SDS011;37835;53.256;6.456;2023-05-10T01:49:34;10.30;;;9.38;;
51764;SDS011;37835;53.256;6.456;2023-05-10T01:52:09;11.60;;;10.50;;
51764;SDS011;37835;53.256;6.456;2023-05-10T01:54:41;11.50;;;10.13;;
51764;SDS011;37835;53.256;6.456;2023-05-10T01:57:13;11.65;;;10.48;;
51764;SDS011;37835;53.256;6.456;2023-05-10T01:59:39;11.40;;;10.20;;
51764;SDS011;37835;53.256;6.456;2023-05-10T02:02:08;10.80;;;9.73;;
51764;SDS011;37835;53.256;6.456;2023-05-10T02:04:37;13.07;;;9.70;;
51764;SDS011;37835;53.256;6.456;2023-05-10T02:07:04;10.23;;;9.18;;
51764;SDS011;37835;53.256;6.456;2023-05-10T02:09:31;9.90;;;8.80;;
51764;SDS011;37835;53.256;6.456;2023-05-10T02:11:58;8.90;;;8.20;;
51764;SDS011;37835;53.256;6.456;2023-05-10T02:14:27;9.35;;;8.27;;
51764;SDS011;37835;53.256;6.456;2023-05-10T02:16:55;9.05;;;8.25;;
51764;SDS011;37835;53.256;6.456;2023-05-10T02:19:23;9.30;;;8.50;;
51764;SDS011;37835;53.256;6.456;2023-05-10T02:21:50;10.82;;;8.75;;
51764;SDS011;37835;53.256;6.456;2023-05-10T02:24:16;9.90;;;8.90;;
51764;SDS011;37835;53.256;6.456;2023-05-10T02:26:44;11.00;;;9.90;;
51764;SDS011;37835;53.256;6.456;2023-05-10T02:29:12;13.00;;;9.98;;
51764;SDS011;37835;53.256;6.456;2023-05-10T02:31:39;11.95;;;10.32;;
51764;SDS011;37835;53.256;6.456;2023-05-10T02:34:08;14.75;;;11.48;;
51764;SDS011;37835;53.256;6.456;2023-05-10T02:36:35;14.15;;;11.70;;
51764;SDS011;37835;53.256;6.456;2023-05-10T02:39:02;18.35;;;12.48;;
51764;SDS011;37835;53.256;6.456;2023-05-10T02:41:30;19.83;;;14.07;;
51764;SDS011;37835;53.256;6.456;2023-05-10T02:43:59;21.55;;;14.18;;
51764;SDS011;37835;53.256;6.456;2023-05-10T02:46:27;24.30;;;15.35;;
51764;SDS011;37835;53.256;6.456;2023-05-10T02:48:53;23.60;;;15.82;;
51764;SDS011;37835;53.256;6.456;2023-05-10T02:51:19;24.25;;;15.43;;
51764;SDS011;37835;53.256;6.456;2023-05-10T02:53:49;24.02;;;16.52;;
51764;SDS011;37835;53.256;6.456;2023-05-10T02:56:25;21.65;;;15.32;;
51764;SDS011;37835;53.256;6.456;2023-05-10T02:58:55;21.00;;;15.02;;
51764;SDS011;37835;53.256;6.456;2023-05-10T03:01:21;20.15;;;15.05;;
51764;SDS011;37835;53.256;6.456;2023-05-10T03:03:46;24.30;;;16.92;;
51764;SDS011;37835;53.256;6.456;2023-05-10T03:06:12;23.67;;;15.88;;
51764;SDS011;37835;53.256;6.456;2023-05-10T03:08:38;26.33;;;16.90;;
51764;SDS011;37835;53.256;6.456;2023-05-10T03:14:10;26.38;;;16.60;;
51764;SDS011;37835;53.256;6.456;2023-05-10T03:16:56;22.65;;;15.05;;
51764;SDS011;37835;53.256;6.456;2023-05-10T03:19:32;24.33;;;15.82;;
51764;SDS011;37835;53.256;6.456;2023-05-10T03:22:04;21.50;;;14.93;;
51764;SDS011;37835;53.256;6.456;2023-05-10T03:24:35;22.92;;;15.52;;
51764;SDS011;37835;53.256;6.456;2023-05-10T03:27:01;20.02;;;13.63;;
51764;SDS011;37835;53.256;6.456;2023-05-10T03:29:29;19.20;;;13.60;;
51764;SDS011;37835;53.256;6.456;2023-05-10T03:31:57;22.58;;;13.32;;
51764;SDS011;37835;53.256;6.456;2023-05-10T03:34:25;22.88;;;13.65;;
51764;SDS011;37835;53.256;6.456;2023-05-10T03:36:51;19.02;;;12.68;;
51764;SDS011;37835;53.256;6.456;2023-05-10T03:39:17;18.38;;;12.10;;
51764;SDS011;37835;53.256;6.456;2023-05-10T03:41:43;18.92;;;11.90;;
51764;SDS011;37835;53.256;6.456;2023-05-10T03:44:08;15.10;;;10.43;;
51764;SDS011;37835;53.256;6.456;2023-05-10T03:46:34;12.73;;;9.73;;
51764;SDS011;37835;53.256;6.456;2023-05-10T03:48:59;10.23;;;8.23;;
51764;SDS011;37835;53.256;6.456;2023-05-10T03:51:25;13.20;;;8.15;;
51764;SDS011;37835;53.256;6.456;2023-05-10T03:53:53;8.63;;;7.70;;
51764;SDS011;37835;53.256;6.456;2023-05-10T03:56:19;10.00;;;7.68;;
51764;SDS011;37835;53.256;6.456;2023-05-10T03:58:45;11.02;;;8.57;;
51764;SDS011;37835;53.256;6.456;2023-05-10T04:01:11;8.57;;;7.57;;
51764;SDS011;37835;53.256;6.456;2023-05-10T04:03:37;8.85;;;7.90;;
51764;SDS011;37835;53.256;6.456;2023-05-10T04:06:03;8.32;;;7.63;;
51764;SDS011;37835;53.256;6.456;2023-05-10T04:08:29;8.68;;;7.72;;
51764;SDS011;37835;53.256;6.456;2023-05-10T04:11:04;9.32;;;7.97;;
51764;SDS011;37835;53.256;6.456;2023-05-10T04:13:33;9.52;;;8.48;;
51764;SDS011;37835;53.256;6.456;2023-05-10T04:15:59;8.90;;;8.10;;
51764;SDS011;37835;53.256;6.456;2023-05-10T04:18:25;8.63;;;7.72;;
51764;SDS011;37835;53.256;6.456;2023-05-10T04:20:51;11.40;;;8.25;;
51764;SDS011;37835;53.256;6.456;2023-05-10T04:23:16;10.40;;;8.07;;
51764;SDS011;37835;53.256;6.456;2023-05-10T04:25:42;8.15;;;7.35;;
51764;SDS011;37835;53.256;6.456;2023-05-10T04:28:08;11.50;;;8.20;;
51764;SDS011;37835;53.256;6.456;2023-05-10T04:30:33;7.88;;;7.07;;
51764;SDS011;37835;53.256;6.456;2023-05-10T04:32:59;7.65;;;6.95;;
51764;SDS011;37835;53.256;6.456;2023-05-10T04:35:27;7.68;;;7.07;;
51764;SDS011;37835;53.256;6.456;2023-05-10T04:37:53;7.80;;;7.00;;
51764;SDS011;37835;53.256;6.456;2023-05-10T04:40:18;8.75;;;7.30;;
51764;SDS011;37835;53.256;6.456;2023-05-10T04:42:45;8.23;;;7.50;;
51764;SDS011;37835;53.256;6.456;2023-05-10T04:45:11;14.55;;;8.57;;
51764;SDS011;37835;53.256;6.456;2023-05-10T04:47:36;13.23;;;8.75;;
51764;SDS011;37835;53.256;6.456;2023-05-10T04:50:02;10.18;;;8.93;;
51764;SDS011;37835;53.256;6.456;2023-05-10T04:52:28;9.30;;;8.38;;
51764;SDS011;37835;53.256;6.456;2023-05-10T04:54:54;10.60;;;8.15;;
51764;SDS011;37835;53.256;6.456;2023-05-10T04:57:20;8.60;;;7.72;;
51764;SDS011;37835;53.256;6.456;2023-05-10T04:59:45;11.00;;;8.63;;
51764;SDS011;37835;53.256;6.456;2023-05-10T05:02:11;8.50;;;7.60;;
51764;SDS011;37835;53.256;6.456;2023-05-10T05:04:36;8.18;;;7.38;;
51764;SDS011;37835;53.256;6.456;2023-05-10T05:07:02;7.85;;;7.18;;
51764;SDS011;37835;53.256;6.456;2023-05-10T05:09:27;8.10;;;7.30;;
51764;SDS011;37835;53.256;6.456;2023-05-10T05:11:53;8.10;;;7.32;;
51764;SDS011;37835;53.256;6.456;2023-05-10T05:14:18;8.88;;;8.00;;
51764;SDS011;37835;53.256;6.456;2023-05-10T05:16:45;9.90;;;8.73;;
51764;SDS011;37835;53.256;6.456;2023-05-10T05:19:11;8.90;;;7.35;;
51764;SDS011;37835;53.256;6.456;2023-05-10T05:21:37;10.38;;;9.05;;
51764;SDS011;37835;53.256;6.456;2023-05-10T05:24:03;8.85;;;8.05;;
51764;SDS011;37835;53.256;6.456;2023-05-10T05:26:29;11.68;;;8.98;;
51764;SDS011;37835;53.256;6.456;2023-05-10T05:28:54;9.73;;;8.25;;
51764;SDS011;37835;53.256;6.456;2023-05-10T05:31:20;9.32;;;7.95;;
51764;SDS011;37835;53.256;6.456;2023-05-10T05:33:46;6.97;;;6.38;;
51764;SDS011;37835;53.256;6.456;2023-05-10T05:36:11;8.02;;;6.82;;
51764;SDS011;37835;53.256;6.456;2023-05-10T05:38:37;6.00;;;5.43;;
51764;SDS011;37835;53.256;6.456;2023-05-10T05:41:03;7.68;;;5.00;;
51764;SDS011;37835;53.256;6.456;2023-05-10T05:43:28;4.95;;;4.38;;
51764;SDS011;37835;53.256;6.456;2023-05-10T05:45:54;4.38;;;3.97;;
51764;SDS011;37835;53.256;6.456;2023-05-10T05:48:20;4.00;;;3.70;;
51764;SDS011;37835;53.256;6.456;2023-05-10T05:50:46;3.20;;;3.00;;
51764;SDS011;37835;53.256;6.456;2023-05-10T05:53:12;2.75;;;2.55;;
51764;SDS011;37835;53.256;6.456;2023-05-10T05:55:37;2.33;;;2.10;;
51764;SDS011;37835;53.256;6.456;2023-05-10T05:58:03;2.13;;;2.03;;
51764;SDS011;37835;53.256;6.456;2023-05-10T06:00:28;1.90;;;1.80;;
51764;SDS011;37835;53.256;6.456;2023-05-10T06:02:54;1.35;;;1.35;;
51764;SDS011;37835;53.256;6.456;2023-05-10T06:05:19;1.50;;;1.50;;
51764;SDS011;37835;53.256;6.456;2023-05-10T06:07:45;2.10;;;2.00;;
51764;SDS011;37835;53.256;6.456;2023-05-10T06:10:11;2.80;;;2.63;;
51764;SDS011;37835;53.256;6.456;2023-05-10T06:12:37;2.83;;;2.65;;
51764;SDS011;37835;53.256;6.456;2023-05-10T06:15:03;3.75;;;3.42;;
51764;SDS011;37835;53.256;6.456;2023-05-10T06:17:30;6.75;;;6.10;;
51764;SDS011;37835;53.256;6.456;2023-05-10T06:19:55;12.85;;;10.75;;
51764;SDS011;37835;53.256;6.456;2023-05-10T06:22:21;17.00;;;13.65;;
51764;SDS011;37835;53.256;6.456;2023-05-10T06:24:47;22.13;;;15.90;;
51764;SDS011;37835;53.256;6.456;2023-05-10T06:27:13;20.83;;;15.48;;
51764;SDS011;37835;53.256;6.456;2023-05-10T06:29:39;27.83;;;17.58;;
51764;SDS011;37835;53.256;6.456;2023-05-10T06:32:05;23.52;;;16.90;;
51764;SDS011;37835;53.256;6.456;2023-05-10T06:34:30;22.27;;;15.52;;
51764;SDS011;37835;53.256;6.456;2023-05-10T06:36:56;21.52;;;16.48;;
51764;SDS011;37835;53.256;6.456;2023-05-10T06:39:22;23.95;;;18.80;;
51764;SDS011;37835;53.256;6.456;2023-05-10T06:41:47;26.00;;;19.02;;
51764;SDS011;37835;53.256;6.456;2023-05-10T06:44:13;20.35;;;16.05;;
51764;SDS011;37835;53.256;6.456;2023-05-10T06:46:38;18.30;;;13.85;;
51764;SDS011;37835;53.256;6.456;2023-05-10T06:49:04;17.23;;;12.57;;
51764;SDS011;37835;53.256;6.456;2023-05-10T06:51:29;17.55;;;11.52;;
51764;SDS011;37835;53.256;6.456;2023-05-10T06:53:55;12.65;;;10.60;;
51764;SDS011;37835;53.256;6.456;2023-05-10T06:56:21;12.40;;;10.57;;
51764;SDS011;37835;53.256;6.456;2023-05-10T06:58:49;15.18;;;10.55;;
51764;SDS011;37835;53.256;6.456;2023-05-10T07:01:15;11.38;;;9.23;;
51764;SDS011;37835;53.256;6.456;2023-05-10T07:03:40;10.73;;;8.60;;
51764;SDS011;37835;53.256;6.456;2023-05-10T07:06:06;11.25;;;8.50;;
51764;SDS011;37835;53.256;6.456;2023-05-10T07:08:32;9.20;;;8.30;;
51764;SDS011;37835;53.256;6.456;2023-05-10T07:11:02;10.02;;;7.70;;
51764;SDS011;37835;53.256;6.456;2023-05-10T07:13:30;7.10;;;6.50;;
51764;SDS011;37835;53.256;6.456;2023-05-10T07:15:56;6.75;;;6.07;;
51764;SDS011;37835;53.256;6.456;2023-05-10T07:18:23;6.07;;;5.00;;
51764;SDS011;37835;53.256;6.456;2023-05-10T07:20:49;5.78;;;5.13;;
51764;SDS011;37835;53.256;6.456;2023-05-10T07:23:14;4.53;;;4.13;;
51764;SDS011;37835;53.256;6.456;2023-05-10T07:25:40;3.15;;;2.72;;
51764;SDS011;37835;53.256;6.456;2023-05-10T07:28:05;1.98;;;1.88;;
51764;SDS011;37835;53.256;6.456;2023-05-10T07:30:31;1.98;;;1.75;;
51764;SDS011;37835;53.256;6.456;2023-05-10T07:32:56;1.85;;;1.75;;
51764;SDS011;37835;53.256;6.456;2023-05-10T07:35:22;2.15;;;2.05;;
51764;SDS011;37835;53.256;6.456;2023-05-10T07:37:47;3.30;;;3.00;;
51764;SDS011;37835;53.256;6.456;2023-05-10T07:40:13;3.50;;;3.20;;
51764;SDS011;37835;53.256;6.456;2023-05-10T07:42:38;4.13;;;3.83;;
51764;SDS011;37835;53.256;6.456;2023-05-10T07:45:04;3.75;;;3.50;;
51764;SDS011;37835;53.256;6.456;2023-05-10T07:47:30;4.30;;;3.90;;
51764;SDS011;37835;53.256;6.456;2023-05-10T07:49:56;8.13;;;5.78;;
51764;SDS011;37835;53.256;6.456;2023-05-10T07:52:21;8.20;;;5.50;;
51764;SDS011;37835;53.256;6.456;2023-05-10T07:54:47;7.78;;;4.85;;
51764;SDS011;37835;53.256;6.456;2023-05-10T07:57:12;8.43;;;5.50;;
51764;SDS011;37835;53.256;6.456;2023-05-10T07:59:40;8.15;;;5.18;;
51764;SDS011;37835;53.256;6.456;2023-05-10T08:02:06;8.38;;;5.38;;
51764;SDS011;37835;53.256;6.456;2023-05-10T08:04:31;7.28;;;5.75;;
51764;SDS011;37835;53.256;6.456;2023-05-10T08:06:57;8.38;;;5.32;;
51764;SDS011;37835;53.256;6.456;2023-05-10T08:09:22;7.88;;;5.57;;
51764;SDS011;37835;53.256;6.456;2023-05-10T08:11:49;6.60;;;5.38;;
51764;SDS011;37835;53.256;6.456;2023-05-10T08:14:15;8.05;;;5.68;;
51764;SDS011;37835;53.256;6.456;2023-05-10T08:16:41;6.90;;;6.20;;
51764;SDS011;37835;53.256;6.456;2023-05-10T08:19:07;6.90;;;6.28;;
51764;SDS011;37835;53.256;6.456;2023-05-10T08:21:32;7.35;;;6.65;;
51764;SDS011;37835;53.256;6.456;2023-05-10T08:23:58;7.15;;;6.55;;
51764;SDS011;37835;53.256;6.456;2023-05-10T08:26:24;7.70;;;6.93;;
51764;SDS011;37835;53.256;6.456;2023-05-10T08:28:49;6.47;;;5.88;;
51764;SDS011;37835;53.256;6.456;2023-05-10T08:31:15;7.75;;;6.03;;
51764;SDS011;37835;53.256;6.456;2023-05-10T08:33:41;5.88;;;5.35;;
51764;SDS011;37835;53.256;6.456;2023-05-10T08:36:06;4.07;;;3.78;;
51764;SDS011;37835;53.256;6.456;2023-05-10T08:38:32;4.15;;;3.75;;
51764;SDS011;37835;53.256;6.456;2023-05-10T08:40:57;7.05;;;4.75;;
51764;SDS011;37835;53.256;6.456;2023-05-10T08:43:27;5.22;;;4.72;;
51764;SDS011;37835;53.256;6.456;2023-05-10T08:45:54;5.68;;;4.93;;
51764;SDS011;37835;53.256;6.456;2023-05-10T08:48:24;6.90;;;4.78;;
51764;SDS011;37835;53.256;6.456;2023-05-10T08:50:50;8.52;;;5.55;;
51764;SDS011;37835;53.256;6.456;2023-05-10T08:53:18;6.47;;;5.75;;
51764;SDS011;37835;53.256;6.456;2023-05-10T08:55:44;6.57;;;5.85;;
51764;SDS011;37835;53.256;6.456;2023-05-10T08:58:11;11.65;;;6.53;;
51764;SDS011;37835;53.256;6.456;2023-05-10T09:00:36;8.32;;;6.25;;
51764;SDS011;37835;53.256;6.456;2023-05-10T09:03:03;7.75;;;5.80;;
51764;SDS011;37835;53.256;6.456;2023-05-10T09:05:30;7.57;;;6.40;;
51764;SDS011;37835;53.256;6.456;2023-05-10T09:07:55;10.43;;;6.30;;
51764;SDS011;37835;53.256;6.456;2023-05-10T09:10:21;9.80;;;6.78;;
51764;SDS011;37835;53.256;6.456;2023-05-10T09:12:51;9.75;;;7.13;;
51764;SDS011;37835;53.256;6.456;2023-05-10T09:15:18;12.15;;;7.50;;
51764;SDS011;37835;53.256;6.456;2023-05-10T09:17:45;6.93;;;5.88;;
51764;SDS011;37835;53.256;6.456;2023-05-10T09:20:11;6.95;;;6.25;;
51764;SDS011;37835;53.256;6.456;2023-05-10T09:22:37;7.30;;;6.60;;
51764;SDS011;37835;53.256;6.456;2023-05-10T09:25:13;7.07;;;6.38;;
51764;SDS011;37835;53.256;6.456;2023-05-10T09:27:40;6.05;;;5.55;;
51764;SDS011;37835;53.256;6.456;2023-05-10T09:30:09;5.43;;;4.93;;
51764;SDS011;37835;53.256;6.456;2023-05-10T09:32:41;5.55;;;5.05;;
51764;SDS011;37835;53.256;6.456;2023-05-10T09:35:12;4.60;;;4.20;;
51764;SDS011;37835;53.256;6.456;2023-05-10T09:37:41;6.40;;;5.07;;
51764;SDS011;37835;53.256;6.456;2023-05-10T09:40:11;7.88;;;5.32;;
51764;SDS011;37835;53.256;6.456;2023-05-10T09:42:38;6.10;;;5.47;;
51764;SDS011;37835;53.256;6.456;2023-05-10T09:45:04;8.27;;;5.85;;
51764;SDS011;37835;53.256;6.456;2023-05-10T09:47:36;5.55;;;4.68;;
51764;SDS011;37835;53.256;6.456;2023-05-10T09:50:02;5.53;;;4.75;;
51764;SDS011;37835;53.256;6.456;2023-05-10T09:55:21;4.75;;;4.32;;
51764;SDS011;37835;53.256;6.456;2023-05-10T09:57:48;8.95;;;4.40;;
51764;SDS011;37835;53.256;6.456;2023-05-10T10:00:23;6.95;;;4.53;;
51764;SDS011;37835;53.256;6.456;2023-05-10T10:02:58;5.68;;;4.65;;
51764;SDS011;37835;53.256;6.456;2023-05-10T10:05:34;4.00;;;3.70;;
51764;SDS011;37835;53.256;6.456;2023-05-10T10:08:02;4.30;;;3.95;;
51764;SDS011;37835;53.256;6.456;2023-05-10T10:10:29;8.02;;;4.18;;
51764;SDS011;37835;53.256;6.456;2023-05-10T10:12:56;4.40;;;4.00;;
51764;SDS011;37835;53.256;6.456;2023-05-10T10:15:23;3.63;;;3.33;;
51764;SDS011;37835;53.256;6.456;2023-05-10T10:17:49;4.95;;;2.90;;
51764;SDS011;37835;53.256;6.456;2023-05-10T10:20:17;3.88;;;3.58;;
51764;SDS011;37835;53.256;6.456;2023-05-10T10:22:44;3.88;;;3.22;;
51764;SDS011;37835;53.256;6.456;2023-05-10T10:25:11;4.88;;;3.95;;
51764;SDS011;37835;53.256;6.456;2023-05-10T10:30:18;5.90;;;4.90;;
51764;SDS011;37835;53.256;6.456;2023-05-10T10:36:05;6.57;;;5.32;;
51764;SDS011;37835;53.256;6.456;2023-05-10T10:49:50;10.43;;;7.05;;
51764;SDS011;37835;53.256;6.456;2023-05-10T10:52:24;8.75;;;7.95;;
51764;SDS011;37835;53.256;6.456;2023-05-10T10:57:53;11.13;;;9.40;;
51764;SDS011;37835;53.256;6.456;2023-05-10T11:00:24;16.83;;;10.80;;
51764;SDS011;37835;53.256;6.456;2023-05-10T11:03:04;14.00;;;10.18;;
51764;SDS011;37835;53.256;6.456;2023-05-10T11:05:44;11.90;;;9.55;;
51764;SDS011;37835;53.256;6.456;2023-05-10T11:08:26;13.57;;;9.55;;
51764;SDS011;37835;53.256;6.456;2023-05-10T11:13:44;17.75;;;10.60;;
51764;SDS011;37835;53.256;6.456;2023-05-10T11:19:18;14.85;;;11.48;;
51764;SDS011;37835;53.256;6.456;2023-05-10T11:22:39;16.10;;;11.82;;
51764;SDS011;37835;53.256;6.456;2023-05-10T11:24:36;15.07;;;11.07;;
51764;SDS011;37835;53.256;6.456;2023-05-10T11:27:01;16.30;;;10.68;;
51764;SDS011;37835;53.256;6.456;2023-05-10T11:29:27;14.95;;;10.90;;
51764;SDS011;37835;53.256;6.456;2023-05-10T11:31:53;14.32;;;11.18;;
51764;SDS011;37835;53.256;6.456;2023-05-10T11:34:26;14.55;;;10.98;;
51764;SDS011;37835;53.256;6.456;2023-05-10T11:36:55;14.48;;;10.77;;
51764;SDS011;37835;53.256;6.456;2023-05-10T11:39:25;14.43;;;11.25;;
51764;SDS011;37835;53.256;6.456;2023-05-10T11:41:55;17.25;;;11.40;;
51764;SDS011;37835;53.256;6.456;2023-05-10T11:44:21;12.70;;;10.70;;
51764;SDS011;37835;53.256;6.456;2023-05-10T11:46:47;15.73;;;11.05;;
51764;SDS011;37835;53.256;6.456;2023-05-10T11:49:14;16.10;;;12.07;;
51764;SDS011;37835;53.256;6.456;2023-05-10T11:51:40;15.65;;;11.45;;
51764;SDS011;37835;53.256;6.456;2023-05-10T11:54:07;14.18;;;11.55;;
51764;SDS011;37835;53.256;6.456;2023-05-10T11:56:34;16.25;;;12.00;;
51764;SDS011;37835;53.256;6.456;2023-05-10T11:59:00;17.35;;;12.48;;
51764;SDS011;37835;53.256;6.456;2023-05-10T12:01:27;19.77;;;13.05;;
51764;SDS011;37835;53.256;6.456;2023-05-10T12:03:55;19.50;;;13.07;;
51764;SDS011;37835;53.256;6.456;2023-05-10T12:06:28;17.52;;;12.20;;
51764;SDS011;37835;53.256;6.456;2023-05-10T12:08:56;16.48;;;12.68;;
51764;SDS011;37835;53.256;6.456;2023-05-10T12:11:25;16.15;;;11.65;;
51764;SDS011;37835;53.256;6.456;2023-05-10T12:13:52;15.63;;;11.02;;
51764;SDS011;37835;53.256;6.456;2023-05-10T12:16:22;14.68;;;11.10;;
51764;SDS011;37835;53.256;6.456;2023-05-10T12:18:50;13.23;;;10.80;;
51764;SDS011;37835;53.256;6.456;2023-05-10T12:21:16;13.30;;;11.00;;
51764;SDS011;37835;53.256;6.456;2023-05-10T12:23:43;14.90;;;11.30;;
51764;SDS011;37835;53.256;6.456;2023-05-10T12:26:11;13.98;;;11.13;;
51764;SDS011;37835;53.256;6.456;2023-05-10T12:28:37;10.57;;;9.48;;
51764;SDS011;37835;53.256;6.456;2023-05-10T12:31:03;11.88;;;10.38;;
51764;SDS011;37835;53.256;6.456;2023-05-10T12:33:37;11.43;;;9.38;;
51764;SDS011;37835;53.256;6.456;2023-05-10T12:36:06;12.43;;;10.32;;
51764;SDS011;37835;53.256;6.456;2023-05-10T12:38:36;11.20;;;9.85;;
51764;SDS011;37835;53.256;6.456;2023-05-10T12:41:06;10.73;;;9.48;;
51764;SDS011;37835;53.256;6.456;2023-05-10T12:43:34;13.63;;;9.35;;
51764;SDS011;37835;53.256;6.456;2023-05-10T12:46:07;11.45;;;9.30;;
51764;SDS011;37835;53.256;6.456;2023-05-10T12:48:34;12.63;;;9.60;;
51764;SDS011;37835;53.256;6.456;2023-05-10T12:51:01;11.38;;;8.73;;
51764;SDS011;37835;53.256;6.456;2023-05-10T12:53:27;11.05;;;9.23;;
51764;SDS011;37835;53.256;6.456;2023-05-10T12:55:53;9.90;;;8.73;;
51764;SDS011;37835;53.256;6.456;2023-05-10T12:58:19;11.95;;;9.18;;
51764;SDS011;37835;53.256;6.456;2023-05-10T13:00:45;12.27;;;8.63;;
51764;SDS011;37835;53.256;6.456;2023-05-10T13:03:10;11.48;;;8.88;;
51764;SDS011;37835;53.256;6.456;2023-05-10T13:05:36;10.50;;;8.40;;
51764;SDS011;37835;53.256;6.456;2023-05-10T13:08:02;10.15;;;8.73;;
51764;SDS011;37835;53.256;6.456;2023-05-10T13:10:29;12.02;;;9.13;;
51764;SDS011;37835;53.256;6.456;2023-05-10T13:12:55;10.30;;;8.30;;
51764;SDS011;37835;53.256;6.456;2023-05-10T13:15:21;10.80;;;9.32;;
51764;SDS011;37835;53.256;6.456;2023-05-10T13:17:47;11.57;;;8.68;;
51764;SDS011;37835;53.256;6.456;2023-05-10T13:20:13;10.55;;;8.57;;
51764;SDS011;37835;53.256;6.456;2023-05-10T13:22:39;10.40;;;8.55;;
51764;SDS011;37835;53.256;6.456;2023-05-10T13:25:05;8.32;;;7.43;;
51764;SDS011;37835;53.256;6.456;2023-05-10T13:27:31;7.60;;;6.90;;
51764;SDS011;37835;53.256;6.456;2023-05-10T13:29:57;9.23;;;6.88;;
51764;SDS011;37835;53.256;6.456;2023-05-10T13:32:24;7.78;;;7.03;;
51764;SDS011;37835;53.256;6.456;2023-05-10T13:34:50;8.57;;;7.68;;
51764;SDS011;37835;53.256;6.456;2023-05-10T13:37:16;12.10;;;8.57;;
51764;SDS011;37835;53.256;6.456;2023-05-10T13:39:42;8.85;;;7.95;;
51764;SDS011;37835;53.256;6.456;2023-05-10T13:42:07;11.77;;;8.75;;
51764;SDS011;37835;53.256;6.456;2023-05-10T13:44:33;12.35;;;9.25;;
51764;SDS011;37835;53.256;6.456;2023-05-10T13:46:59;11.52;;;9.80;;
51764;SDS011;37835;53.256;6.456;2023-05-10T13:49:24;11.15;;;9.45;;
51764;SDS011;37835;53.256;6.456;2023-05-10T13:51:50;10.70;;;9.43;;
51764;SDS011;37835;53.256;6.456;2023-05-10T13:54:16;12.77;;;9.27;;
51764;SDS011;37835;53.256;6.456;2023-05-10T13:56:44;10.60;;;8.55;;
51764;SDS011;37835;53.256;6.456;2023-05-10T13:59:12;10.23;;;9.20;;
51764;SDS011;37835;53.256;6.456;2023-05-10T14:01:39;11.10;;;9.20;;
51764;SDS011;37835;53.256;6.456;2023-05-10T14:04:05;11.25;;;9.55;;
51764;SDS011;37835;53.256;6.456;2023-05-10T14:06:31;16.67;;;9.55;;
51764;SDS011;37835;53.256;6.456;2023-05-10T14:08:56;10.50;;;8.77;;
51764;SDS011;37835;53.256;6.456;2023-05-10T14:11:22;11.05;;;8.60;;
51764;SDS011;37835;53.256;6.456;2023-05-10T14:13:48;11.38;;;8.95;;
51764;SDS011;37835;53.256;6.456;2023-05-10T14:16:14;11.15;;;9.90;;
51764;SDS011;37835;53.256;6.456;2023-05-10T14:18:39;11.02;;;9.57;;
51764;SDS011;37835;53.256;6.456;2023-05-10T14:21:05;11.73;;;10.05;;
51764;SDS011;37835;53.256;6.456;2023-05-10T14:23:31;15.07;;;9.35;;
51764;SDS011;37835;53.256;6.456;2023-05-10T14:25:56;12.90;;;11.43;;
51764;SDS011;37835;53.256;6.456;2023-05-10T14:28:22;14.00;;;11.10;;
51764;SDS011;37835;53.256;6.456;2023-05-10T14:30:48;16.73;;;12.93;;
51764;SDS011;37835;53.256;6.456;2023-05-10T14:33:14;16.48;;;13.05;;
51764;SDS011;37835;53.256;6.456;2023-05-10T14:35:41;15.13;;;12.57;;
51764;SDS011;37835;53.256;6.456;2023-05-10T14:38:06;17.50;;;12.95;;
51764;SDS011;37835;53.256;6.456;2023-05-10T14:40:32;13.45;;;11.95;;
51764;SDS011;37835;53.256;6.456;2023-05-10T14:42:58;12.32;;;11.05;;
51764;SDS011;37835;53.256;6.456;2023-05-10T14:45:24;15.13;;;11.93;;
51764;SDS011;37835;53.256;6.456;2023-05-10T14:47:49;14.80;;;11.77;;
51764;SDS011;37835;53.256;6.456;2023-05-10T14:50:15;14.30;;;11.25;;
51764;SDS011;37835;53.256;6.456;2023-05-10T14:52:41;12.13;;;10.27;;
51764;SDS011;37835;53.256;6.456;2023-05-10T14:55:07;11.63;;;9.90;;
51764;SDS011;37835;53.256;6.456;2023-05-10T14:57:33;11.57;;;10.07;;
51764;SDS011;37835;53.256;6.456;2023-05-10T14:59:59;10.73;;;9.15;;
51764;SDS011;37835;53.256;6.456;2023-05-10T15:02:25;10.20;;;9.13;;
51764;SDS011;37835;53.256;6.456;2023-05-10T15:04:50;9.82;;;8.82;;
51764;SDS011;37835;53.256;6.456;2023-05-10T15:07:16;9.27;;;8.38;;
51764;SDS011;37835;53.256;6.456;2023-05-10T15:09:43;10.32;;;9.20;;
51764;SDS011;37835;53.256;6.456;2023-05-10T15:12:09;13.32;;;10.90;;
51764;SDS011;37835;53.256;6.456;2023-05-10T15:14:35;12.35;;;11.05;;
51764;SDS011;37835;53.256;6.456;2023-05-10T15:17:01;14.57;;;11.32;;